Time;durP1;ratioP1;P1;durP2;ratioP2;P2;SDS_P1;SDS_P2;PMS_P1;PMS_P2;Temp;Humidity;BMP_temperature;BMP_pressure;BME280_temperature;BME280_humidity;BME280_pressure;Samples;Min_cycle;Max_cycle;Signal;HPM_P1;HPM_P2
2022/07/23 00:01:06;;;;;;;3.50;3.10;;;;;;;18.96;55.31;101435.41;5058885;28;20174;-69
2022/07/23 00:03:31;;;;;;;3.80;2.77;;;;;;;19.08;54.97;101437.88;5059490;28;20523;-70
2022/07/23 00:05:56;;;;;;;3.10;2.80;;;;;;;18.74;55.60;101438.31;5058648;28;20177;-70
2022/07/23 00:08:22;;;;;;;3.40;3.10;;;;;;;18.68;57.53;101433.09;5058888;28;20177;-69
2022/07/23 00:10:47;;;;;;;5.70;3.13;;;;;;;18.57;58.41;101424.44;5059254;28;20169;-69
2022/07/23 00:13:13;;;;;;;9.30;3.30;;;;;;;18.49;59.09;101416.59;5058873;28;20534;-70
2022/07/23 00:15:38;;;;;;;3.67;3.30;;;;;;;18.62;59.28;101409.41;5058619;28;20210;-70
2022/07/23 00:18:03;;;;;;;4.00;3.60;;;;;;;18.55;59.38;101413.91;5059050;28;20249;-70
2022/07/23 00:20:29;;;;;;;4.80;3.20;;;;;;;18.84;59.04;101417.91;5058876;28;20186;-70
2022/07/23 00:22:55;;;;;;;3.50;3.20;;;;;;;18.71;59.17;101411.91;5058603;28;20174;-69
2022/07/23 00:25:21;;;;;;;5.20;4.10;;;;;;;18.59;59.89;101423.53;5058604;28;20165;-71
2022/07/23 00:27:47;;;;;;;6.70;3.63;;;;;;;18.69;59.52;101413.72;5058394;28;20180;-69
2022/07/23 00:30:13;;;;;;;5.20;3.40;;;;;;;18.47;60.53;101421.91;5058689;28;20395;-69
2022/07/23 00:32:48;;;;;;;4.27;3.33;;;;;;;18.52;60.70;101422.75;5059277;28;20176;-69
2022/07/23 00:35:13;;;;;;;4.40;3.50;;;;;;;18.56;60.47;101412.13;5058438;28;20274;-69
2022/07/23 00:37:38;;;;;;;5.30;3.50;;;;;;;18.62;60.49;101412.94;5058627;28;20814;-70
2022/07/23 00:40:04;;;;;;;4.33;3.83;;;;;;;18.38;61.19;101414.09;5057961;28;20182;-69
2022/07/23 00:42:31;;;;;;;4.20;3.40;;;;;;;18.48;60.83;101407.84;5058751;28;20585;-69
2022/07/23 00:44:57;;;;;;;4.83;3.40;;;;;;;18.52;61.05;101409.53;5057959;28;20408;-69
2022/07/23 00:47:22;;;;;;;5.63;3.37;;;;;;;18.47;60.47;101403.44;5058374;28;20427;-70
2022/07/23 00:49:48;;;;;;;4.40;3.30;;;;;;;18.46;60.32;101406.09;5058624;28;20550;-69
2022/07/23 00:52:13;;;;;;;6.23;3.13;;;;;;;18.35;60.17;101403.59;5058560;28;20215;-69
2022/07/23 00:54:38;;;;;;;3.60;3.30;;;;;;;18.45;59.96;101396.44;5057772;28;20221;-69
2022/07/23 00:57:04;;;;;;;2.90;2.70;;;;;;;18.41;59.66;101400.00;5057965;28;20470;-69
2022/07/23 00:59:30;;;;;;;3.97;3.40;;;;;;;18.38;60.20;101403.53;5059227;28;20252;-70
2022/07/23 01:01:55;;;;;;;4.40;3.10;;;;;;;18.16;60.17;101395.88;5058136;28;20184;-70
2022/07/23 01:04:20;;;;;;;4.77;3.00;;;;;;;18.46;59.86;101398.19;5057947;28;20195;-70
2022/07/23 01:06:46;;;;;;;3.40;3.10;;;;;;;18.27;59.91;101397.53;5058372;28;20165;-69
2022/07/23 01:09:12;;;;;;;3.77;3.10;;;;;;;18.32;60.15;101398.31;5058104;28;20173;-69
2022/07/23 01:11:37;;;;;;;7.67;3.33;;;;;;;17.95;61.08;101399.63;5057892;28;20176;-70
2022/07/23 01:14:16;;;;;;;3.67;3.37;;;;;;;18.28;60.12;101394.88;5058023;28;20440;-69
2022/07/23 01:16:43;;;;;;;4.70;3.63;;;;;;;18.39;59.72;101397.38;5057740;28;20193;-69
2022/07/23 01:19:09;;;;;;;3.33;3.03;;;;;;;18.13;60.25;101401.19;5057788;28;20412;-69
2022/07/23 01:21:40;;;;;;;5.07;3.10;;;;;;;18.47;59.63;101400.78;5057870;28;20439;-69
2022/07/23 01:24:06;;;;;;;3.30;3.00;;;;;;;18.58;59.19;101397.13;5057612;28;20669;-69
2022/07/23 01:26:31;;;;;;;4.87;3.00;;;;;;;18.41;59.23;101390.28;5058039;28;20418;-70
2022/07/23 01:28:57;;;;;;;4.07;3.10;;;;;;;18.38;58.78;101389.47;5057699;28;20420;-69
2022/07/23 01:31:22;;;;;;;3.70;2.80;;;;;;;18.31;58.84;101388.69;5057707;28;20180;-69
2022/07/23 01:33:48;;;;;;;2.90;2.70;;;;;;;18.46;58.52;101391.13;5057874;28;20197;-68
2022/07/23 01:36:13;;;;;;;3.43;3.00;;;;;;;18.06;59.12;101386.31;5057603;28;20284;-69
2022/07/23 01:38:39;;;;;;;3.90;2.80;;;;;;;18.32;58.49;101393.03;5057483;28;20189;-69
2022/07/23 01:41:04;;;;;;;4.50;3.30;;;;;;;18.47;58.15;101384.94;5057949;28;20170;-69
2022/07/23 01:43:29;;;;;;;3.73;2.80;;;;;;;18.61;57.86;101381.25;5057301;28;20280;-69
2022/07/23 01:45:55;;;;;;;3.10;2.77;;;;;;;18.08;59.06;101392.47;5057543;28;20232;-70
2022/07/23 01:48:20;;;;;;;7.87;3.53;;;;;;;18.65;58.02;101380.31;5057994;28;20169;-70
2022/07/23 01:50:47;;;;;;;4.80;3.10;;;;;;;18.51;58.48;101381.38;5057542;28;20170;-70
2022/07/23 01:53:12;;;;;;;3.63;2.83;;;;;;;18.46;58.79;101375.28;5057191;28;20247;-70
2022/07/23 01:55:38;;;;;;;4.20;3.20;;;;;;;18.70;58.72;101373.22;5058316;28;20426;-70
2022/07/23 01:58:03;;;;;;;3.53;3.00;;;;;;;18.77;58.36;101359.00;5061365;28;20228;-69
2022/07/23 02:00:28;;;;;;;5.23;3.10;;;;;;;18.50;58.83;101362.91;5061140;28;20170;-69
2022/07/23 02:02:54;;;;;;;4.60;3.50;;;;;;;18.27;59.63;101357.94;5061601;28;20169;-70
2022/07/23 02:05:19;;;;;;;3.70;3.23;;;;;;;18.45;59.60;101356.81;5060796;28;20427;-69
2022/07/23 02:07:45;;;;;;;3.60;2.87;;;;;;;18.30;59.84;101349.97;5060894;28;20463;-69
2022/07/23 02:10:10;;;;;;;3.27;2.97;;;;;;;18.35;59.90;101340.25;5060592;28;20180;-69
2022/07/23 02:12:35;;;;;;;3.70;3.00;;;;;;;18.26;60.04;101340.34;5060933;28;20178;-69
2022/07/23 02:15:01;;;;;;;3.13;2.83;;;;;;;18.33;60.18;101347.28;5060686;28;20247;-69
2022/07/23 02:17:26;;;;;;;3.10;2.80;;;;;;;18.20;60.31;101348.34;5061489;28;20189;-69
2022/07/23 02:19:51;;;;;;;3.33;3.03;;;;;;;18.20;60.72;101346.59;5060071;28;20480;-69
2022/07/23 02:22:17;;;;;;;5.43;3.17;;;;;;;18.22;60.69;101350.06;5060713;28;20193;-69
2022/07/23 02:24:42;;;;;;;4.50;3.20;;;;;;;18.38;60.62;101339.31;5060921;28;20192;-69
2022/07/23 02:27:07;;;;;;;4.30;3.10;;;;;;;18.28;60.54;101338.53;5060640;28;20161;-69
2022/07/23 02:29:33;;;;;;;4.10;3.20;;;;;;;18.08;61.43;101338.81;5060659;28;20174;-69
2022/07/23 02:31:58;;;;;;;3.70;3.00;;;;;;;17.83;62.41;101346.97;5061033;28;20162;-69
2022/07/23 02:34:23;;;;;;;3.43;3.13;;;;;;;17.84;62.84;101346.94;5060416;28;20166;-69
2022/07/23 02:36:49;;;;;;;4.70;3.53;;;;;;;17.94;62.37;101347.78;5060491;28;20571;-69
2022/07/23 02:39:14;;;;;;;4.27;3.40;;;;;;;17.87;62.48;101353.09;5060773;28;20486;-69
2022/07/23 02:41:39;;;;;;;3.93;3.00;;;;;;;18.03;61.90;101346.78;5060388;28;20177;-69
2022/07/23 02:44:05;;;;;;;4.97;3.40;;;;;;;17.71;63.10;101339.19;5060241;28;20196;-71
2022/07/23 02:46:30;;;;;;;3.97;3.57;;;;;;;17.93;62.62;101339.88;5060724;28;20162;-69
2022/07/23 02:48:56;;;;;;;3.80;3.47;;;;;;;17.61;63.41;101336.63;5060299;28;20224;-69
2022/07/23 02:51:21;;;;;;;11.00;5.87;;;;;;;17.62;63.58;101342.81;5059571;28;20177;-69
2022/07/23 02:53:46;;;;;;;6.17;4.80;;;;;;;17.68;63.50;101335.72;5060144;28;20598;-69
2022/07/23 02:56:12;;;;;;;5.90;4.40;;;;;;;17.72;63.38;101341.81;5060163;28;20240;-69
2022/07/23 02:58:39;;;;;;;7.47;4.90;;;;;;;17.75;63.54;101339.16;5060220;28;20201;-70
2022/07/23 03:01:04;;;;;;;8.13;4.07;;;;;;;17.97;62.87;101336.31;5060114;28;20444;-70
2022/07/23 03:03:29;;;;;;;5.57;4.10;;;;;;;17.56;63.60;101340.22;5060066;28;20183;-69
2022/07/23 03:05:55;;;;;;;6.70;3.80;;;;;;;17.88;62.52;101337.25;5060352;28;20173;-70
2022/07/23 03:08:20;;;;;;;4.13;3.83;;;;;;;17.72;63.40;101325.97;5059361;28;20442;-68
2022/07/23 03:10:45;;;;;;;5.47;3.40;;;;;;;17.61;63.94;101334.00;5059947;28;20176;-70
2022/07/23 03:13:11;;;;;;;4.70;4.03;;;;;;;17.80;63.91;101334.69;5060356;28;20166;-69
2022/07/23 03:15:36;;;;;;;5.50;3.97;;;;;;;17.55;64.89;101322.63;5059052;28;20475;-68
2022/07/23 03:18:01;;;;;;;4.60;3.70;;;;;;;17.76;64.30;101327.69;5059776;28;20181;-69
2022/07/23 03:20:27;;;;;;;4.40;4.00;;;;;;;17.85;64.30;101324.09;5060295;28;20178;-69
2022/07/23 03:22:52;;;;;;;5.60;4.20;;;;;;;18.01;64.01;101322.19;5059623;28;20514;-69
2022/07/23 03:25:17;;;;;;;5.77;3.87;;;;;;;17.92;64.54;101324.94;5059571;28;20186;-70
2022/07/23 03:27:45;;;;;;;4.43;3.90;;;;;;;17.89;64.20;101324.91;5060180;28;20166;-70
2022/07/23 03:30:11;;;;;;;4.20;3.77;;;;;;;17.80;64.53;101324.13;5059625;28;20494;-69
2022/07/23 03:32:36;;;;;;;4.47;4.03;;;;;;;17.51;65.73;101325.31;5059539;28;20459;-69
2022/07/23 03:35:02;;;;;;;4.03;3.60;;;;;;;17.92;64.44;101320.53;5059957;28;20463;-68
2022/07/23 03:37:28;;;;;;;5.40;4.00;;;;;;;17.53;64.95;101330.56;5059397;28;20416;-69
2022/07/23 03:39:53;;;;;;;5.50;4.20;;;;;;;17.72;64.17;101319.84;5059323;28;20249;-68
2022/07/23 03:42:18;;;;;;;5.73;3.80;;;;;;;17.84;63.75;101314.44;5059587;28;20185;-68
2022/07/23 03:44:44;;;;;;;7.33;4.10;;;;;;;17.66;64.16;101323.44;5058977;28;20185;-68
2022/07/23 03:47:09;;;;;;;6.00;3.90;;;;;;;17.58;64.45;101322.63;5059232;28;20177;-69
2022/07/23 03:49:34;;;;;;;4.37;4.00;;;;;;;17.72;63.71;101319.84;5059808;28;20173;-69
2022/07/23 03:52:00;;;;;;;4.60;3.57;;;;;;;17.68;63.58;101317.25;5059014;28;20173;-69
2022/07/23 03:54:25;;;;;;;6.03;4.07;;;;;;;17.72;63.96;101325.97;5058081;28;20312;-69
2022/07/23 03:56:51;;;;;;;6.53;4.13;;;;;;;17.80;63.79;101324.13;5059702;28;20201;-69
2022/07/23 03:59:16;;;;;;;4.90;4.07;;;;;;;18.02;62.62;101329.19;5059217;28;20205;-68
2022/07/23 04:01:41;;;;;;;6.67;4.00;;;;;;;18.09;63.31;101325.59;5058807;28;20566;-69
2022/07/23 04:04:08;;;;;;;9.10;4.17;;;;;;;18.23;62.83;101329.84;5059224;28;20437;-69
2022/07/23 04:06:34;;;;;;;5.20;4.07;;;;;;;18.32;62.56;101332.34;5058859;28;20172;-69
2022/07/23 04:08:59;;;;;;;6.70;4.13;;;;;;;18.90;61.18;101329.81;5058841;28;20408;-69
2022/07/23 04:11:24;;;;;;;5.03;4.17;;;;;;;18.77;61.05;101324.69;5059273;28;20440;-69
2022/07/23 04:13:50;;;;;;;6.37;4.10;;;;;;;18.88;60.68;101326.28;5058564;28;20562;-70
2022/07/23 04:16:15;;;;;;;5.80;4.13;;;;;;;18.43;61.86;101335.72;5059165;28;20224;-69
2022/07/23 04:18:41;;;;;;;4.43;3.80;;;;;;;18.72;61.46;101336.22;5058163;28;20169;-69
2022/07/23 04:21:06;;;;;;;4.97;4.27;;;;;;;18.39;62.39;101333.13;5058758;28;20544;-69
2022/07/23 04:23:32;;;;;;;4.10;3.70;;;;;;;18.20;63.25;101345.69;5058414;28;20604;-69
2022/07/23 04:25:57;;;;;;;5.50;4.10;;;;;;;18.20;63.56;101343.06;5058531;28;20185;-68
2022/07/23 04:28:22;;;;;;;7.30;4.50;;;;;;;18.47;62.74;101344.50;5058420;28;20434;-68
2022/07/23 04:30:48;;;;;;;4.60;4.20;;;;;;;18.00;64.47;101354.72;5058383;28;20220;-70
2022/07/23 04:33:13;;;;;;;6.90;4.43;;;;;;;18.05;64.23;101345.00;5059355;28;20177;-68
2022/07/23 04:35:38;;;;;;;5.27;4.77;;;;;;;18.00;64.75;101344.19;5058215;28;20284;-68
2022/07/23 04:38:04;;;;;;;5.40;4.90;;;;;;;17.95;65.40;101354.75;5058235;28;20169;-68
2022/07/23 04:40:29;;;;;;;6.83;5.40;;;;;;;17.93;65.09;101347.78;5058691;28;20158;-68
2022/07/23 04:42:55;;;;;;;5.70;4.33;;;;;;;17.89;65.29;101356.56;5057456;28;20230;-69
2022/07/23 04:45:21;;;;;;;5.00;4.20;;;;;;;18.02;65.45;101360.84;5058196;28;20166;-69
2022/07/23 04:47:46;;;;;;;8.70;4.90;;;;;;;17.93;65.60;101367.13;5058829;28;20404;-69
2022/07/23 04:50:12;;;;;;;5.20;4.17;;;;;;;17.89;65.79;101364.47;5058243;28;20184;-70
2022/07/23 04:52:37;;;;;;;5.50;4.30;;;;;;;17.76;66.18;101367.25;5058081;28;20176;-69
2022/07/23 04:55:03;;;;;;;5.27;4.67;;;;;;;17.43;67.09;101376.38;5058036;28;20271;-70
2022/07/23 04:57:28;;;;;;;5.00;4.07;;;;;;;17.80;65.32;101366.31;5057992;28;20283;-68
2022/07/23 04:59:54;;;;;;;5.13;4.40;;;;;;;17.58;65.04;101351.63;5057980;28;20174;-68
2022/07/23 05:02:19;;;;;;;6.17;4.00;;;;;;;17.71;64.76;101357.63;5058367;28;20564;-68
2022/07/23 05:04:44;;;;;;;4.17;3.80;;;;;;;18.06;63.34;101366.97;5057892;28;20178;-69
2022/07/23 05:07:10;;;;;;;5.23;3.80;;;;;;;17.84;63.49;101357.50;5057918;28;20213;-69
2022/07/23 05:09:35;;;;;;;4.00;3.60;;;;;;;17.58;63.92;101360.41;5058278;28;20170;-69
2022/07/23 05:12:01;;;;;;;5.30;3.87;;;;;;;18.10;62.63;101361.63;5060510;28;20181;-69
2022/07/23 05:14:27;;;;;;;3.80;3.40;;;;;;;18.00;62.63;101355.59;5057875;28;20595;-68
2022/07/23 05:16:53;;;;;;;3.70;3.30;;;;;;;18.23;61.70;101350.97;5058135;28;20193;-68
2022/07/23 05:19:18;;;;;;;3.20;2.90;;;;;;;18.43;61.40;101348.94;5057866;28;20466;-69
2022/07/23 05:21:43;;;;;;;3.33;3.03;;;;;;;18.27;61.62;101355.31;5057777;28;20280;-69
2022/07/23 05:24:09;;;;;;;5.63;3.20;;;;;;;18.33;61.19;101361.38;5058066;28;20181;-68
2022/07/23 05:26:34;;;;;;;4.70;2.93;;;;;;;18.14;61.42;101373.03;5057776;28;20252;-68
2022/07/23 05:29:00;;;;;;;2.97;2.70;;;;;;;17.92;61.60;101372.41;5057799;28;20170;-68
2022/07/23 05:31:25;;;;;;;3.50;3.00;;;;;;;18.09;61.68;101367.81;5061767;28;20166;-70
2022/07/23 05:33:50;;;;;;;3.40;3.00;;;;;;;18.06;61.53;101373.13;5061680;28;20212;-69
2022/07/23 05:36:16;;;;;;;6.50;2.77;;;;;;;18.24;60.71;101373.78;5061638;28;20270;-68
2022/07/23 05:38:41;;;;;;;4.37;2.83;;;;;;;18.32;60.59;101372.81;5062092;28;20241;-68
2022/07/23 05:41:06;;;;;;;3.90;2.97;;;;;;;18.47;60.21;101371.75;5061714;28;20170;-68
2022/07/23 05:43:32;;;;;;;3.63;3.00;;;;;;;18.58;60.15;101371.59;5061350;28;20232;-69
2022/07/23 05:45:57;;;;;;;4.00;3.30;;;;;;;18.28;61.40;101378.13;5061891;28;20170;-69
2022/07/23 05:48:23;;;;;;;5.00;3.43;;;;;;;18.12;62.74;101373.06;5061484;28;20228;-68
2022/07/23 05:50:48;;;;;;;4.63;3.40;;;;;;;18.57;61.90;101363.72;5061553;28;20183;-69
2022/07/23 05:53:13;;;;;;;4.57;3.40;;;;;;;18.60;61.98;101375.09;5061675;28;20233;-70
2022/07/23 05:55:39;;;;;;;3.60;3.30;;;;;;;18.59;62.27;101365.44;5061042;28;20213;-70
2022/07/23 05:58:04;;;;;;;3.60;3.30;;;;;;;18.49;61.98;101369.09;5062171;28;20181;-70
2022/07/23 06:00:30;;;;;;;3.67;3.30;;;;;;;18.40;62.56;101378.00;5061375;28;20555;-69
2022/07/23 06:02:56;;;;;;;6.13;3.50;;;;;;;18.44;62.09;101374.44;5061320;28;20183;-70
2022/07/23 06:05:21;;;;;;;4.47;3.17;;;;;;;18.43;61.84;101372.69;5061259;28;20408;-71
2022/07/23 06:07:47;;;;;;;5.57;3.50;;;;;;;18.79;61.02;101373.06;5061210;28;20399;-71
2022/07/23 06:10:12;;;;;;;4.00;3.30;;;;;;;18.60;61.01;101379.50;5061127;28;20182;-71
2022/07/23 06:12:38;;;;;;;6.03;3.77;;;;;;;18.52;61.82;101377.84;5061615;28;20252;-71
2022/07/23 06:15:04;;;;;;;3.90;3.50;;;;;;;18.90;60.72;101377.34;5060865;28;20555;-71
2022/07/23 06:17:29;;;;;;;5.10;3.57;;;;;;;19.00;60.31;101374.56;5061028;28;20170;-70
2022/07/23 06:19:55;;;;;;;3.87;3.47;;;;;;;19.36;59.72;101381.91;5061433;28;20482;-71
2022/07/23 06:22:21;;;;;;;4.40;3.73;;;;;;;19.16;59.95;101380.47;5060845;28;20574;-70
2022/07/23 06:24:46;;;;;;;4.47;3.37;;;;;;;19.19;59.84;101374.28;5060884;28;20173;-70
2022/07/23 06:27:12;;;;;;;4.00;3.70;;;;;;;18.91;60.02;101384.41;5061199;28;20446;-71
2022/07/23 06:29:37;;;;;;;7.13;3.87;;;;;;;18.74;61.07;101382.84;5060733;28;20554;-71
2022/07/23 06:32:03;;;;;;;4.10;3.70;;;;;;;18.96;60.49;101387.84;5060704;28;20173;-70
2022/07/23 06:34:28;;;;;;;4.30;3.87;;;;;;;19.15;60.33;101384.00;5060707;28;20180;-71
2022/07/23 06:36:53;;;;;;;4.90;3.63;;;;;;;18.85;61.04;101380.03;5060512;28;20206;-70
2022/07/23 06:39:19;;;;;;;5.27;3.90;;;;;;;18.93;60.77;101382.59;5060477;28;20174;-70
2022/07/23 06:41:44;;;;;;;4.70;3.80;;;;;;;19.26;60.07;101389.13;5060071;28;20473;-70
2022/07/23 06:44:10;;;;;;;4.40;4.00;;;;;;;19.61;58.40;101381.50;5060270;28;20296;-71
2022/07/23 06:46:35;;;;;;;4.50;4.10;;;;;;;19.52;58.71;101385.16;5060546;28;20216;-71
2022/07/23 06:49:00;;;;;;;4.70;3.80;;;;;;;19.37;59.09;101382.81;5059915;28;20232;-71
2022/07/23 06:51:26;;;;;;;4.07;3.67;;;;;;;19.32;59.62;101391.69;5060469;28;20176;-68
2022/07/23 06:53:51;;;;;;;6.87;3.53;;;;;;;19.61;58.70;101392.94;5060191;28;20229;-69
2022/07/23 06:56:17;;;;;;;4.53;3.70;;;;;;;19.75;58.18;101390.03;5060576;28;20201;-69
2022/07/23 06:58:42;;;;;;;3.67;3.37;;;;;;;19.34;58.87;101400.44;5060242;28;20220;-71
2022/07/23 07:01:07;;;;;;;4.03;3.60;;;;;;;20.12;57.05;101388.50;5060161;28;20174;-71
2022/07/23 07:03:33;;;;;;;3.53;3.10;;;;;;;20.45;56.28;101401.97;5060246;28;20170;-71
2022/07/23 07:05:58;;;;;;;8.90;3.00;;;;;;;20.36;56.30;101398.63;5059850;28;20181;-70
2022/07/23 07:08:24;;;;;;;4.57;2.70;;;;;;;20.13;56.81;101392.91;5060124;28;20173;-71
2022/07/23 07:10:49;;;;;;;3.67;3.17;;;;;;;20.21;56.04;101398.06;5060488;28;20494;-71
2022/07/23 07:13:14;;;;;;;2.83;2.50;;;;;;;19.22;57.05;101400.66;5059859;28;20166;-71
2022/07/23 07:15:40;;;;;;;4.03;2.57;;;;;;;19.62;56.17;101407.03;5059678;28;20270;-70
2022/07/23 07:18:06;;;;;;;3.77;2.50;;;;;;;18.92;58.27;101413.44;5060583;28;20212;-71
2022/07/23 07:20:32;;;;;;;3.00;2.77;;;;;;;19.22;58.17;101415.66;5059127;28;20188;-71
2022/07/23 07:22:57;;;;;;;3.20;2.50;;;;;;;18.79;60.19;101415.31;5059885;28;20170;-72
2022/07/23 07:25:22;;;;;;;2.97;2.53;;;;;;;18.96;61.59;101416.91;5060046;28;20223;-71
2022/07/23 07:27:48;;;;;;;3.57;2.50;;;;;;;18.81;60.95;101418.84;5059613;28;20256;-71
2022/07/23 07:30:13;;;;;;;2.83;2.50;;;;;;;19.10;60.44;101419.34;5059674;28;20425;-71
2022/07/23 07:32:39;;;;;;;5.60;2.20;;;;;;;19.68;58.46;101413.09;5060001;28;20197;-71
2022/07/23 07:35:07;;;;;;;3.50;2.83;;;;;;;19.59;57.62;101421.22;5059311;28;20217;-71
2022/07/23 07:37:32;;;;;;;4.20;2.10;;;;;;;20.59;55.48;101421.09;5059689;28;20452;-71
2022/07/23 07:39:57;;;;;;;2.40;2.10;;;;;;;20.41;55.25;101409.09;5059957;28;20451;-70
2022/07/23 07:42:23;;;;;;;2.70;2.00;;;;;;;20.43;54.56;101409.97;5059318;28;20251;-69
2022/07/23 07:44:48;;;;;;;2.30;1.90;;;;;;;20.74;54.01;101411.09;5059551;28;20166;-68
2022/07/23 07:47:15;;;;;;;2.00;1.80;;;;;;;20.76;53.43;101412.81;5059903;28;20180;-70
2022/07/23 07:49:41;;;;;;;2.60;1.87;;;;;;;21.65;51.09;101398.34;5059190;28;20269;-68
2022/07/23 07:52:06;;;;;;;2.70;2.40;;;;;;;21.73;51.08;101404.34;5059200;28;20454;-72
2022/07/23 07:54:32;;;;;;;6.53;4.20;;;;;;;21.85;49.65;101393.41;5058960;28;20467;-75
2022/07/23 07:56:57;;;;;;;3.80;2.20;;;;;;;22.58;48.84;101394.00;5059070;28;20215;-76
2022/07/23 07:59:23;;;;;;;2.77;2.03;;;;;;;21.77;50.47;101406.00;5059759;28;20197;-75
2022/07/23 08:01:48;;;;;;;2.47;2.10;;;;;;;21.72;50.42;101407.91;5059223;28;20174;-73
2022/07/23 08:04:14;;;;;;;2.53;1.90;;;;;;;22.16;49.23;101407.59;5056119;28;20186;-72
2022/07/23 08:06:39;;;;;;;2.23;2.03;;;;;;;22.37;48.21;101409.66;5039738;28;20166;-71
2022/07/23 08:09:05;;;;;;;2.23;1.80;;;;;;;23.32;46.38;101404.13;5038967;28;20547;-71
2022/07/23 08:11:30;;;;;;;2.63;2.20;;;;;;;23.75;45.68;101408.00;5038846;28;20174;-73
2022/07/23 08:13:56;;;;;;;2.30;2.10;;;;;;;22.78;47.89;101409.34;5038988;28;20174;-75
2022/07/23 08:16:21;;;;;;;2.77;1.90;;;;;;;21.85;51.06;101422.59;5038601;28;20213;-72
2022/07/23 08:18:47;;;;;;;2.23;1.93;;;;;;;20.22;56.19;101434.22;5038503;28;20177;-74
2022/07/23 08:21:12;;;;;;;2.43;2.23;;;;;;;19.63;59.67;101441.41;5038401;28;20260;-71
2022/07/23 08:23:38;;;;;;;2.37;2.17;;;;;;;19.30;60.52;101440.19;5038340;28;20445;-72
2022/07/23 08:26:03;;;;;;;2.13;1.93;;;;;;;18.62;61.66;101441.13;5038701;28;20220;-70
2022/07/23 08:28:29;;;;;;;3.30;1.80;;;;;;;18.12;62.42;101436.38;5039128;28;20170;-71
2022/07/23 08:30:54;;;;;;;2.03;1.83;;;;;;;18.94;60.28;101429.25;5038655;28;20204;-70
2022/07/23 08:33:19;;;;;;;2.33;1.90;;;;;;;19.27;59.69;101424.38;5037671;28;20253;-69
2022/07/23 08:35:50;;;;;;;2.30;2.10;;;;;;;19.51;57.79;101417.78;5038643;28;20558;-70
2022/07/23 08:38:17;;;;;;;3.53;2.23;;;;;;;19.92;55.50;101413.59;5038391;28;20174;-70
2022/07/23 08:40:46;;;;;;;2.10;1.90;;;;;;;20.92;54.02;101413.34;5038398;28;20676;-70
2022/07/23 08:43:15;;;;;;;2.53;1.90;;;;;;;20.35;53.30;101417.19;5028477;28;20467;-70
2022/07/23 08:45:43;;;;;;;2.33;2.07;;;;;;;21.15;52.12;101409.28;5038042;28;20455;-70
2022/07/23 08:48:12;;;;;;;2.90;2.07;;;;;;;21.80;49.58;101413.88;5038571;28;20413;-70
2022/07/23 08:50:38;;;;;;;2.23;1.70;;;;;;;21.76;48.99;101414.88;5038289;28;20413;-70
2022/07/23 08:53:06;;;;;;;2.33;1.97;;;;;;;21.96;48.41;101410.78;5037223;28;20479;-70
2022/07/23 08:55:31;;;;;;;2.40;1.70;;;;;;;21.67;48.68;101408.00;5038435;28;20229;-69
2022/07/23 08:57:57;;;;;;;2.10;1.90;;;;;;;22.40;46.83;101403.38;5037959;28;20838;-68
2022/07/23 09:00:22;;;;;;;4.03;1.90;;;;;;;22.35;47.82;101415.94;5037870;28;20185;-71
2022/07/23 09:02:49;;;;;;;1.97;1.60;;;;;;;21.62;49.76;101417.00;5038448;28;20177;-72
2022/07/23 09:05:15;;;;;;;2.77;1.90;;;;;;;22.39;47.83;101406.09;5048346;28;20181;-72
2022/07/23 09:08:03;;;;;;;2.73;1.60;;;;;;;22.15;47.26;101408.50;5057922;28;20677;-72
2022/07/23 09:10:29;;;;;;;3.73;1.70;;;;;;;23.69;45.08;101403.75;5057825;28;20173;-72
2022/07/23 09:12:54;;;;;;;5.00;2.40;;;;;;;24.23;43.80;101400.97;5057492;28;20427;-73
2022/07/23 09:15:20;;;;;;;2.83;1.77;;;;;;;23.65;44.82;101401.25;5056906;28;20216;-72
2022/07/23 09:17:45;;;;;;;2.20;1.70;;;;;;;22.94;46.04;101404.41;5057900;28;20554;-70
2022/07/23 09:20:13;;;;;;;3.50;2.47;;;;;;;23.70;45.54;101409.94;5058168;28;20257;-70
2022/07/23 09:22:40;;;;;;;3.10;2.10;;;;;;;23.02;45.82;101407.69;5057705;28;20192;-70
2022/07/23 09:25:17;;;;;;;1.90;1.70;;;;;;;22.23;48.08;101403.88;5057597;28;20429;-72
2022/07/23 09:27:56;;;;;;;2.50;2.30;;;;;;;23.44;45.64;101398.41;5057649;28;20441;-71
2022/07/23 09:30:29;;;;;;;2.67;2.10;;;;;;;24.66;43.58;101409.19;5057590;28;20409;-74
2022/07/23 09:33:20;;;;;;;2.10;1.90;;;;;;;23.97;43.67;101405.47;5057734;28;20420;-74
2022/07/23 09:35:58;;;;;;;2.20;2.00;;;;;;;23.78;44.64;101407.88;5057546;28;20470;-74
2022/07/23 09:38:24;;;;;;;2.10;1.90;;;;;;;23.85;44.33;101408.53;5057810;28;20673;-70
2022/07/23 09:41:09;;;;;;;2.00;1.80;;;;;;;23.43;43.79;101412.63;5057702;28;20412;-72
2022/07/23 09:43:35;;;;;;;2.50;2.20;;;;;;;23.34;44.18;101413.81;5057376;28;20475;-72
2022/07/23 09:46:20;;;;;;;2.23;1.90;;;;;;;23.00;44.60;101419.31;5057676;28;20459;-72
2022/07/23 09:48:47;;;;;;;2.93;1.97;;;;;;;22.32;46.15;101414.19;5057479;28;20231;-71
2022/07/23 09:51:16;;;;;;;2.87;2.23;;;;;;;21.78;46.91;101421.00;5057599;28;20423;-72
2022/07/23 09:53:45;;;;;;;3.13;2.83;;;;;;;21.96;45.91;101419.66;5057119;28;20475;-72
2022/07/23 09:56:12;;;;;;;3.23;2.70;;;;;;;22.49;45.75;101418.22;5057372;28;20837;-71
2022/07/23 09:58:43;;;;;;;2.93;2.23;;;;;;;22.82;45.39;101415.44;5056938;28;20424;-73
2022/07/23 10:01:09;;;;;;;3.00;2.10;;;;;;;23.35;43.80;101420.00;5057520;28;20416;-72
2022/07/23 10:03:35;;;;;;;3.27;2.30;;;;;;;22.56;45.75;101421.56;5056714;28;20657;-72
2022/07/23 10:06:00;;;;;;;3.63;1.93;;;;;;;21.92;48.09;101431.25;5057579;28;20424;-72
2022/07/23 10:08:26;;;;;;;2.30;2.10;;;;;;;22.14;47.57;101433.34;5057363;28;20173;-71
2022/07/23 10:10:53;;;;;;;2.67;1.90;;;;;;;21.77;48.15;101437.84;5057396;28;20181;-70
2022/07/23 10:15:59;;;;;;;1.70;1.60;;;;;;;21.43;47.99;101436.00;5056905;28;20532;-70
2022/07/23 10:18:25;;;;;;;1.90;1.70;;;;;;;;;;5060577;28;20498;-71
2022/07/23 10:20:51;;;;;;;2.63;1.73;;;;;;;22.28;46.73;101435.59;5060770;28;20177;-70
2022/07/23 10:23:40;;;;;;;2.93;1.97;;;;;;;22.15;46.67;101427.97;5061053;28;20189;-71
2022/07/23 10:26:24;;;;;;;2.27;1.70;;;;;;;22.35;45.58;101429.22;5060666;28;20686;-71
2022/07/23 10:29:24;;;;;;;2.70;1.87;;;;;;;22.24;45.35;101431.28;5060042;28;20484;-71
2022/07/23 10:31:59;;;;;;;2.63;1.80;;;;;;;23.28;44.08;101435.28;5060714;28;20461;-71
2022/07/23 10:34:34;;;;;;;2.67;2.10;;;;;;;22.84;43.84;101429.53;5060721;28;20487;-73
2022/07/23 10:37:09;;;;;;;2.83;2.10;;;;;;;24.45;41.54;101429.47;5060630;28;20881;-72
2022/07/23 10:39:34;;;;;;;2.47;1.87;;;;;;;25.17;39.31;101424.03;5059869;28;20423;-71
2022/07/23 10:42:10;;;;;;;2.87;2.30;;;;;;;24.88;40.28;101427.88;5060159;28;20440;-74
2022/07/23 10:44:47;;;;;;;1.93;1.73;;;;;;;24.49;40.34;101426.66;5059846;28;20558;-72
2022/07/23 10:47:40;;;;;;;1.87;1.50;;;;;;;25.19;39.12;101427.53;5060160;28;20407;-73
2022/07/23 10:50:30;;;;;;;2.00;1.80;;;;;;;25.19;39.02;101448.88;5059652;28;20474;-73
2022/07/23 10:53:18;;;;;;;1.73;1.50;;;;;;;24.98;39.97;101431.06;5059349;28;20423;-72
2022/07/23 10:55:48;;;;;;;2.00;1.80;;;;;;;24.75;40.71;101430.16;5059920;28;20730;-72
2022/07/23 10:58:20;;;;;;;2.63;2.43;;;;;;;23.65;42.67;101431.41;5060192;28;20474;-71
2022/07/23 11:00:46;;;;;;;2.87;2.07;;;;;;;23.14;44.42;101442.84;5059929;28;20416;-72
2022/07/23 11:03:32;;;;;;;2.30;2.10;;;;;;;22.70;44.80;101437.94;5059890;28;20416;-72
2022/07/23 11:05:58;;;;;;;3.70;2.00;;;;;;;22.80;44.75;101443.84;5060011;28;20235;-72
2022/07/23 11:08:23;;;;;;;2.07;1.87;;;;;;;22.74;44.74;101442.25;5059225;28;20412;-72
2022/07/23 11:10:55;;;;;;;4.90;1.93;;;;;;;23.31;43.75;101435.19;5059874;28;20257;-72
2022/07/23 11:13:31;;;;;;;2.10;1.90;;;;;;;23.14;42.82;101443.72;5060284;28;20462;-72
2022/07/23 11:16:10;;;;;;;3.93;2.23;;;;;;;24.67;40.46;101440.25;5058992;28;20470;-72
2022/07/23 11:18:39;;;;;;;1.90;1.60;;;;;;;25.44;38.48;101434.53;5059798;28;20459;-72
2022/07/23 11:23:57;;;;;;;2.17;1.80;;;;;;;26.24;36.96;101427.56;5059745;28;20479;-77
2022/07/23 11:26:37;;;;;;;1.90;1.70;;;;;;;26.31;36.58;101425.47;5058941;28;20424;-77
2022/07/23 11:29:25;;;;;;;2.90;2.60;;;;;;;26.65;36.28;101423.91;5059495;28;20681;-77
2022/07/23 11:32:01;;;;;;;2.47;2.27;;;;;;;25.38;38.21;101432.13;5059941;28;20396;-79